KNQX/NQX METAR and TAF weather

Enter ICAO airport designator
Station Type Date Time Source
KNQX METAR 2021/10/20 06:53 UTC NOAA

KNQX 200653Z AUTO 05008KT 10SM SCT046 27/19 A3007 RMK AO2 SLP180 T02720194 $


Station Type Date Time Source
KNQX Decoded METAR 2021/10/20 06:53 UTC NOAA

KEY WEST NAVAL AIR STATION, FL, United States (KNQX) 24-35N 81-41W 6M
Oct 20, 2021 - 02:53 AM EDT / 2021.10.20 0653 UTC
Wind: from the NE (050 degrees) at 9 MPH (8 KT):0
Visibility: 10 mile(s):0
Sky conditions: partly cloudy
Temperature: 81.0 F (27.2 C)
Dew Point: 66.9 F (19.4 C)
Relative Humidity: 62%
Pressure (altimeter): 30.07 in. Hg (1018 hPa)
ob: KNQX 200653Z AUTO 05008KT 10SM SCT046 27/19 A3007 RMK AO2 SLP180 T02720194
cycle: 7

Station Type Date Time Source
KNQX TAF 2021/10/19 23:59 UTC NOAA

TAF KNQX 1923/2023 07009KT 9999 FEW035 BKN250 QNH3001INS
FM201400 08012KT 9999 SCT035 BKN250 QNH2998INS AUTOMATED SENSOR METWATCH 2002 TIL 2010 T27/2010Z T31/2019Z FN20056

Example: see airport list